createdAt,value
2024-01-01T00:02:05.755Z,12.40
2024-01-01T00:04:52.075Z,12.40
2024-01-01T00:07:38.118Z,12.30
2024-01-01T00:10:23.982Z,12.30
2024-01-01T00:13:10.870Z,12.30
2024-01-01T00:15:56.668Z,12.30
2024-01-01T00:18:45.101Z,12.30
2024-01-01T00:21:31.310Z,12.30
2024-01-01T00:24:18.161Z,12.30
2024-01-01T00:27:04.435Z,12.30
2024-01-01T00:29:50.735Z,12.30
2024-01-01T00:32:37.948Z,12.30
2024-01-01T00:35:23.925Z,12.20
2024-01-01T00:38:09.449Z,12.20
2024-01-01T00:40:55.352Z,12.20
2024-01-01T00:43:41.576Z,12.20
2024-01-01T00:46:28.020Z,12.20
2024-01-01T00:49:14.000Z,12.10
2024-01-01T00:51:59.775Z,12.10
2024-01-01T00:54:45.357Z,12.10
2024-01-01T00:57:30.992Z,12.10
2024-01-01T01:00:17.110Z,12.10
2024-01-01T01:03:03.839Z,12.00
2024-01-01T01:05:50.011Z,12.00
2024-01-01T01:08:36.661Z,12.00
2024-01-01T01:11:22.744Z,12.00
2024-01-01T01:14:09.586Z,12.00
2024-01-01T01:16:55.510Z,12.00
2024-01-01T01:19:41.449Z,12.00
2024-01-01T01:22:27.651Z,12.00
2024-01-01T01:25:14.146Z,12.00
2024-01-01T01:28:00.218Z,11.90
2024-01-01T01:30:45.951Z,11.90
2024-01-01T01:33:31.490Z,12.00
2024-01-01T01:36:18.590Z,12.00
2024-01-01T01:39:04.302Z,11.90
2024-01-01T01:41:49.781Z,11.90
2024-01-01T01:44:36.611Z,12.00
2024-01-01T01:47:26.421Z,11.90
2024-01-01T01:50:13.579Z,11.90
2024-01-01T01:53:00.002Z,11.90
2024-01-01T01:55:47.448Z,11.90
2024-01-01T01:58:34.635Z,12.00
2024-01-01T02:01:20.661Z,12.00
2024-01-01T02:04:06.442Z,12.00
2024-01-01T02:06:52.243Z,12.00
2024-01-01T02:09:39.985Z,12.00
2024-01-01T02:12:25.601Z,12.00
2024-01-01T02:15:11.583Z,12.10
2024-01-01T02:18:00.466Z,12.10
2024-01-01T02:20:46.598Z,12.10
2024-01-01T02:23:32.877Z,12.10
2024-01-01T02:26:18.918Z,12.10
2024-01-01T02:29:06.271Z,12.10
2024-01-01T02:31:52.800Z,12.10
2024-01-01T02:34:38.662Z,12.10
2024-01-01T02:37:24.708Z,12.10
2024-01-01T02:40:12.508Z,12.10
2024-01-01T02:42:58.237Z,12.10
2024-01-01T02:45:44.271Z,12.10
2024-01-01T02:48:30.143Z,12.10
2024-01-01T02:51:16.495Z,12.10
2024-01-01T02:54:02.954Z,12.10
2024-01-01T02:56:49.329Z,12.10
2024-01-01T02:59:34.902Z,12.10
2024-01-01T03:02:21.164Z,12.10
2024-01-01T03:05:08.135Z,12.10
2024-01-01T03:07:54.229Z,12.20
2024-01-01T03:10:40.252Z,12.20
2024-01-01T03:13:26.496Z,12.20
2024-01-01T03:16:12.179Z,12.20
2024-01-01T03:18:58.438Z,12.10
2024-01-01T03:21:45.059Z,12.10
2024-01-01T03:24:31.140Z,12.10
2024-01-01T03:27:16.944Z,12.10
2024-01-01T03:30:07.305Z,12.10
2024-01-01T03:32:53.782Z,12.20
2024-01-01T03:35:39.977Z,12.20
2024-01-01T03:38:25.640Z,12.20
2024-01-01T03:41:11.806Z,12.10
2024-01-01T03:43:57.926Z,12.10
2024-01-01T03:46:44.378Z,12.10
2024-01-01T03:49:30.223Z,12.10
2024-01-01T03:52:15.751Z,12.10
2024-01-01T03:55:01.824Z,12.10
2024-01-01T03:57:47.711Z,12.20
2024-01-01T04:00:34.032Z,12.20
2024-01-01T04:03:20.055Z,12.20
2024-01-01T04:06:07.255Z,12.20
2024-01-01T04:08:53.531Z,12.30
2024-01-01T04:11:41.729Z,12.30
2024-01-01T04:14:27.668Z,12.30
2024-01-01T04:17:13.651Z,12.40
2024-01-01T04:19:59.896Z,12.40
2024-01-01T04:22:46.870Z,12.40
2024-01-01T04:25:34.193Z,12.40
2024-01-01T04:28:20.229Z,12.40
2024-01-01T04:31:05.776Z,12.40
2024-01-01T04:33:51.294Z,12.40
2024-01-01T04:36:40.850Z,12.40
2024-01-01T04:39:27.489Z,12.40
2024-01-01T04:42:13.100Z,12.40
2024-01-01T04:44:59.888Z,12.40
2024-01-01T04:47:46.023Z,12.40
2024-01-01T04:50:35.025Z,12.40
2024-01-01T04:53:20.521Z,12.40
2024-01-01T04:56:06.799Z,12.40
2024-01-01T04:58:55.365Z,12.40
2024-01-01T05:01:41.606Z,12.40
2024-01-01T05:04:27.542Z,12.30
2024-01-01T05:07:13.514Z,12.30
2024-01-01T05:09:59.232Z,12.30
2024-01-01T05:12:46.206Z,12.30
2024-01-01T05:15:32.182Z,12.20
2024-01-01T05:18:17.675Z,12.20
2024-01-01T05:21:06.547Z,12.20
2024-01-01T05:23:52.489Z,12.20
2024-01-01T05:26:38.568Z,12.20
2024-01-01T05:29:25.506Z,12.10
2024-01-01T05:32:11.412Z,12.10
2024-01-01T05:34:57.112Z,12.10
2024-01-01T05:37:43.124Z,12.10
2024-01-01T05:40:28.722Z,12.10
2024-01-01T05:43:15.322Z,12.10
2024-01-01T05:46:01.210Z,12.10
2024-01-01T05:48:47.455Z,12.10
2024-01-01T05:51:34.471Z,12.10
2024-01-01T05:54:20.111Z,12.00
2024-01-01T05:57:06.182Z,12.00
2024-01-01T05:59:51.734Z,12.00
2024-01-01T06:02:37.473Z,11.90
2024-01-01T06:05:23.519Z,11.90
2024-01-01T06:08:10.624Z,11.90
2024-01-01T06:10:56.902Z,11.90
2024-01-01T06:13:42.441Z,11.90
2024-01-01T06:16:30.356Z,11.90
2024-01-01T06:19:16.903Z,11.90
2024-01-01T06:22:02.888Z,11.90
2024-01-01T06:24:48.325Z,11.90
2024-01-01T06:27:33.993Z,11.80
2024-01-01T06:30:19.858Z,11.80
2024-01-01T06:33:06.474Z,11.80
2024-01-01T06:35:52.568Z,11.80
2024-01-01T06:38:38.948Z,11.80
2024-01-01T06:41:25.151Z,11.80
2024-01-01T06:44:10.958Z,11.80
2024-01-01T06:46:59.194Z,11.80
2024-01-01T06:49:44.797Z,11.80
2024-01-01T06:52:31.038Z,11.90
2024-01-01T06:55:18.777Z,11.90
2024-01-01T06:58:05.815Z,11.90
2024-01-01T07:00:52.282Z,11.90
2024-01-01T07:03:38.693Z,11.90
2024-01-01T07:06:24.860Z,11.90
2024-01-01T07:09:11.571Z,11.90
2024-01-01T07:12:00.530Z,11.90
2024-01-01T07:14:47.897Z,12.00
2024-01-01T07:17:35.718Z,12.00
2024-01-01T07:20:22.233Z,12.00
2024-01-01T07:23:09.449Z,11.90
2024-01-01T07:26:02.439Z,11.90
2024-01-01T07:28:50.114Z,11.90
2024-01-01T07:31:36.605Z,12.00
2024-01-01T07:34:29.886Z,11.90
2024-01-01T07:37:15.993Z,11.90
2024-01-01T07:40:02.012Z,11.90
2024-01-01T07:42:48.355Z,11.90
2024-01-01T07:45:34.717Z,11.90
2024-01-01T07:48:21.296Z,11.90
2024-01-01T07:51:07.275Z,11.90
2024-01-01T07:53:53.096Z,11.90
2024-01-01T07:56:45.168Z,11.90
2024-01-01T07:59:31.389Z,11.90
2024-01-01T08:02:16.912Z,12.00
2024-01-01T08:05:03.502Z,11.90
2024-01-01T08:07:49.899Z,11.90
2024-01-01T08:10:35.555Z,12.00
2024-01-01T08:13:21.924Z,12.00
2024-01-01T08:16:08.073Z,12.00
2024-01-01T08:18:57.881Z,12.00
2024-01-01T08:21:44.012Z,12.10
2024-01-01T08:24:30.687Z,12.10
2024-01-01T08:27:16.441Z,12.10
2024-01-01T08:30:02.726Z,12.20
2024-01-01T08:32:48.313Z,12.20
2024-01-01T08:35:34.282Z,12.20
2024-01-01T08:38:20.980Z,12.20
2024-01-01T08:41:07.089Z,12.20
2024-01-01T08:43:58.670Z,12.20
2024-01-01T08:46:44.689Z,12.20
2024-01-01T08:49:30.245Z,12.30
2024-01-01T08:52:16.370Z,12.30
2024-01-01T08:55:02.734Z,12.30
2024-01-01T08:57:48.644Z,12.40
2024-01-01T09:00:34.506Z,12.40
2024-01-01T09:03:20.841Z,12.40
2024-01-01T09:06:07.537Z,12.50
2024-01-01T09:09:04.881Z,12.50
2024-01-01T09:12:37.109Z,12.50
2024-01-01T09:15:21.172Z,12.50
2024-01-01T09:18:16.345Z,12.50
2024-01-01T09:21:35.977Z,12.50
2024-01-01T09:24:26.910Z,12.50
2024-01-01T09:27:25.266Z,12.60
2024-01-01T09:30:35.917Z,12.60
2024-01-01T09:33:53.250Z,12.60
2024-01-01T09:37:00.585Z,12.60
2024-01-01T09:39:50.287Z,12.60
2024-01-01T09:43:00.065Z,12.70
2024-01-01T09:45:49.882Z,12.70
2024-01-01T09:48:37.530Z,12.60
2024-01-01T09:51:23.939Z,12.70
2024-01-01T09:54:10.741Z,12.70
2024-01-01T09:56:56.876Z,12.70
2024-01-01T09:59:42.401Z,12.70
2024-01-01T10:02:30.240Z,12.80
2024-01-01T10:05:17.888Z,12.80
2024-01-01T10:08:24.803Z,12.80
2024-01-01T10:11:23.416Z,12.80
2024-01-01T10:14:13.083Z,12.80
2024-01-01T10:18:03.537Z,12.80
2024-01-01T10:21:16.390Z,12.80
2024-01-01T10:24:32.073Z,12.80
2024-01-01T10:27:24.115Z,12.90
2024-01-01T10:30:14.766Z,12.90
2024-01-01T10:33:05.984Z,12.90
2024-01-01T10:35:58.219Z,13.00
2024-01-01T10:38:46.265Z,13.00
2024-01-01T10:41:42.950Z,13.00
2024-01-01T10:44:41.177Z,13.00
2024-01-01T10:47:30.896Z,13.10
2024-01-01T10:50:32.363Z,13.10
2024-01-01T10:53:44.058Z,13.10
2024-01-01T10:56:58.977Z,13.10
2024-01-01T10:59:55.758Z,13.10
2024-01-01T11:02:44.306Z,13.20
2024-01-01T11:05:36.418Z,13.20
2024-01-01T11:08:29.799Z,13.20
2024-01-01T11:11:29.429Z,13.20
2024-01-01T11:14:28.251Z,13.20
2024-01-01T11:17:26.736Z,13.30
2024-01-01T11:20:57.946Z,13.30
2024-01-01T11:23:47.493Z,13.40
2024-01-01T11:26:36.820Z,13.40
2024-01-01T11:30:40.471Z,13.40
2024-01-01T11:33:35.787Z,13.50
2024-01-01T11:36:30.236Z,13.50
2024-01-01T11:39:23.099Z,13.60
2024-01-01T11:42:09.508Z,13.60
2024-01-01T11:45:19.106Z,13.60
2024-01-01T11:48:12.362Z,13.60
2024-01-01T11:51:09.845Z,13.70
2024-01-01T11:54:12.739Z,13.70
2024-01-01T11:57:00.062Z,13.70
2024-01-01T11:59:46.640Z,13.70
2024-01-01T12:02:34.647Z,13.70
2024-01-01T12:05:21.401Z,13.80
2024-01-01T12:08:14.960Z,13.80
2024-01-01T12:11:02.529Z,13.80
2024-01-01T12:13:58.417Z,13.80
2024-01-01T12:16:44.729Z,13.80
2024-01-01T12:19:36.075Z,13.80
2024-01-01T12:22:25.511Z,13.80
2024-01-01T12:25:21.002Z,13.80
2024-01-01T12:28:27.828Z,13.80
2024-01-01T12:31:19.355Z,13.80
2024-01-01T12:34:08.243Z,13.80
2024-01-01T12:36:56.712Z,13.90
2024-01-01T12:39:43.079Z,13.90
2024-01-01T12:42:28.571Z,13.80
2024-01-01T12:45:15.350Z,13.80
2024-01-01T12:48:01.715Z,13.80
2024-01-01T12:50:47.752Z,13.80
2024-01-01T12:53:33.452Z,13.80
2024-01-01T12:56:21.045Z,13.80
2024-01-01T12:59:10.182Z,13.80
2024-01-01T13:01:58.017Z,13.80
2024-01-01T13:04:46.726Z,13.80
2024-01-01T13:07:33.329Z,13.80
2024-01-01T13:10:19.260Z,13.80
2024-01-01T13:13:05.858Z,13.70
2024-01-01T13:15:53.852Z,13.70
2024-01-01T13:18:40.794Z,13.70
2024-01-01T13:21:29.698Z,13.70
2024-01-01T13:24:16.923Z,13.60
2024-01-01T13:27:03.135Z,13.60
2024-01-01T13:29:49.903Z,13.60
2024-01-01T13:32:37.404Z,13.60
2024-01-01T13:35:24.428Z,13.60
2024-01-01T13:38:11.699Z,13.60
2024-01-01T13:40:57.918Z,13.60
2024-01-01T13:43:43.961Z,13.50
2024-01-01T13:46:30.230Z,13.60
2024-01-01T13:49:16.547Z,13.60
2024-01-01T13:52:03.619Z,13.60
2024-01-01T13:54:49.334Z,13.50
2024-01-01T13:57:35.643Z,13.50
2024-01-01T14:00:21.493Z,13.50
2024-01-01T14:03:08.067Z,13.50
2024-01-01T14:05:55.076Z,13.60
2024-01-01T14:08:40.737Z,13.60
2024-01-01T14:11:27.079Z,13.60
2024-01-01T14:14:13.724Z,13.60
2024-01-01T14:17:00.171Z,13.60
2024-01-01T14:19:46.407Z,13.50
2024-01-01T14:22:33.352Z,13.60
2024-01-01T14:25:20.059Z,13.60
2024-01-01T14:28:06.513Z,13.60
2024-01-01T14:30:53.007Z,13.60
2024-01-01T14:33:38.872Z,13.60
2024-01-01T14:36:24.998Z,13.60
2024-01-01T14:39:14.905Z,13.60
2024-01-01T14:42:01.057Z,13.60
2024-01-01T14:44:50.524Z,13.60
2024-01-01T14:47:45.073Z,13.50
2024-01-01T14:50:40.865Z,13.50
2024-01-01T14:53:28.071Z,13.60
2024-01-01T14:56:20.466Z,13.50
2024-01-01T14:59:09.303Z,13.50
2024-01-01T15:02:10.278Z,13.50
2024-01-01T15:04:56.590Z,13.50
2024-01-01T15:07:43.497Z,13.50
2024-01-01T15:10:30.230Z,13.50
2024-01-01T15:13:16.791Z,13.50
2024-01-01T15:16:03.060Z,13.50
2024-01-01T15:18:52.379Z,13.60
2024-01-01T15:21:41.079Z,13.60
2024-01-01T15:24:32.855Z,13.60
2024-01-01T15:27:19.077Z,13.60
2024-01-01T15:30:06.498Z,13.60
2024-01-01T15:32:53.516Z,13.60
2024-01-01T15:35:41.864Z,13.60
2024-01-01T15:38:34.957Z,13.60
2024-01-01T15:41:41.733Z,13.60
2024-01-01T15:44:28.212Z,13.60
2024-01-01T15:47:41.305Z,13.60
2024-01-01T15:50:27.514Z,13.70
2024-01-01T15:53:14.207Z,13.60
2024-01-01T15:56:16.064Z,13.60
2024-01-01T15:59:11.346Z,13.70
2024-01-01T16:02:26.331Z,13.60
2024-01-01T16:05:25.391Z,13.60
2024-01-01T16:08:19.215Z,13.60
2024-01-01T16:11:24.784Z,13.60
2024-01-01T16:20:22.221Z,13.60
2024-01-01T16:24:16.788Z,13.50
2024-01-01T16:30:40.680Z,13.60
2024-01-01T16:33:52.959Z,13.60
2024-01-01T16:36:44.761Z,13.50
2024-01-01T16:39:34.956Z,13.50
2024-01-01T16:42:21.114Z,13.50
2024-01-01T16:45:09.416Z,13.50
2024-01-01T16:47:56.368Z,13.50
2024-01-01T16:50:50.964Z,13.50
2024-01-01T16:53:38.803Z,13.50
2024-01-01T16:56:26.768Z,13.50
2024-01-01T16:59:15.418Z,13.40
2024-01-01T17:02:05.249Z,13.40
2024-01-01T17:04:51.456Z,13.40
2024-01-01T17:07:43.395Z,13.40
2024-01-01T17:10:29.508Z,13.40
2024-01-01T17:13:17.480Z,13.40
2024-01-01T17:16:04.770Z,13.40
2024-01-01T17:18:52.118Z,13.40
2024-01-01T17:21:39.882Z,13.40
2024-01-01T17:24:25.493Z,13.40
2024-01-01T17:27:13.628Z,13.40
2024-01-01T17:30:01.181Z,13.40
2024-01-01T17:32:47.599Z,13.40
2024-01-01T17:40:39.279Z,13.40
2024-01-01T17:43:34.782Z,13.40
2024-01-01T17:47:46.984Z,13.30
2024-01-01T17:57:55.375Z,13.30
2024-01-01T18:02:02.623Z,13.20
2024-01-01T18:04:49.895Z,13.20
2024-01-01T18:07:50.120Z,13.20
2024-01-01T18:10:40.318Z,13.20
2024-01-01T18:13:26.441Z,13.20
2024-01-01T18:16:18.629Z,13.20
2024-01-01T18:19:11.837Z,13.20
2024-01-01T18:22:08.003Z,13.20
2024-01-01T18:24:53.908Z,13.20
2024-01-01T18:27:39.692Z,13.30
2024-01-01T18:30:26.592Z,13.30
2024-01-01T18:33:12.747Z,13.20
2024-01-01T18:35:58.258Z,13.30
2024-01-01T18:38:44.783Z,13.20
2024-01-01T18:41:31.350Z,13.20
2024-01-01T18:44:17.456Z,13.20
2024-01-01T18:47:05.690Z,13.20
2024-01-01T18:49:51.574Z,13.20
2024-01-01T18:52:37.190Z,13.20
2024-01-01T18:55:22.946Z,13.20
2024-01-01T18:58:09.141Z,13.10
2024-01-01T19:00:54.528Z,13.20
2024-01-01T19:03:40.677Z,13.20
2024-01-01T19:06:26.800Z,13.20
2024-01-01T19:09:12.789Z,13.20
2024-01-01T19:11:58.235Z,13.20
2024-01-01T19:14:43.802Z,13.20
2024-01-01T19:17:29.358Z,13.20
2024-01-01T19:20:15.592Z,13.20
2024-01-01T19:23:01.268Z,13.20
2024-01-01T19:25:47.438Z,13.20
2024-01-01T19:28:33.466Z,13.20
2024-01-01T19:31:18.962Z,13.20
2024-01-01T19:34:04.558Z,13.20
2024-01-01T19:36:50.393Z,13.20
2024-01-01T19:39:40.471Z,13.20
2024-01-01T19:42:26.482Z,13.20
2024-01-01T19:45:12.142Z,13.20
2024-01-01T19:47:57.580Z,13.20
2024-01-01T19:50:43.646Z,13.20
2024-01-01T19:53:29.993Z,13.20
2024-01-01T19:56:26.721Z,13.10
2024-01-01T19:59:12.472Z,13.10
2024-01-01T20:01:58.487Z,13.10
2024-01-01T20:04:44.604Z,13.10
2024-01-01T20:07:30.513Z,13.10
2024-01-01T20:10:16.303Z,13.10
2024-01-01T20:13:02.380Z,13.10
2024-01-01T20:15:47.719Z,13.10
2024-01-01T20:18:35.383Z,13.20
2024-01-01T20:21:23.196Z,13.20
2024-01-01T20:24:10.556Z,13.10
2024-01-01T20:26:56.640Z,13.10
2024-01-01T20:29:42.172Z,13.10
2024-01-01T20:32:27.872Z,13.10
2024-01-01T20:35:14.038Z,13.10
2024-01-01T20:38:00.097Z,13.10
2024-01-01T20:40:46.344Z,13.10
2024-01-01T20:43:31.952Z,13.10
2024-01-01T20:46:17.766Z,13.10
2024-01-01T20:49:03.704Z,13.10
2024-01-01T20:51:49.743Z,13.10
2024-01-01T20:54:35.467Z,13.10
2024-01-01T20:57:22.573Z,13.10
2024-01-01T21:00:10.242Z,13.10
2024-01-01T21:03:00.520Z,13.10
2024-01-01T21:05:48.319Z,13.10
2024-01-01T21:08:34.232Z,13.10
2024-01-01T21:11:21.506Z,13.00
2024-01-01T21:14:07.443Z,13.00
2024-01-01T21:16:53.569Z,13.00
2024-01-01T21:19:39.362Z,13.00
2024-01-01T21:22:25.741Z,13.00
2024-01-01T21:25:12.017Z,13.00
2024-01-01T21:27:58.819Z,13.00
2024-01-01T21:30:45.413Z,13.00
2024-01-01T21:33:31.650Z,13.00
2024-01-01T21:36:17.813Z,13.00
2024-01-01T21:39:04.415Z,13.00
2024-01-01T21:41:50.196Z,13.00
2024-01-01T21:44:36.173Z,13.00
2024-01-01T21:47:22.449Z,13.00
2024-01-01T21:50:09.110Z,13.00
2024-01-01T21:52:58.099Z,13.00
2024-01-01T21:55:47.231Z,12.90
2024-01-01T21:58:32.758Z,13.00
2024-01-01T22:01:18.768Z,13.00
2024-01-01T22:04:04.436Z,13.00
2024-01-01T22:06:50.381Z,12.90
2024-01-01T22:09:36.319Z,12.90
2024-01-01T22:12:22.134Z,12.90
2024-01-01T22:15:09.664Z,12.90
2024-01-01T22:17:55.513Z,12.90
2024-01-01T22:20:41.671Z,12.90
2024-01-01T22:23:27.489Z,12.90
2024-01-01T22:26:18.460Z,12.80
2024-01-01T22:29:05.247Z,12.80
2024-01-01T22:31:50.910Z,12.80
2024-01-01T22:34:36.310Z,12.80
2024-01-01T22:37:21.758Z,12.80
2024-01-01T22:40:08.424Z,12.80
2024-01-01T22:42:54.324Z,12.80
2024-01-01T22:45:41.370Z,12.80
2024-01-01T22:48:26.951Z,12.90
2024-01-01T22:51:12.826Z,12.80
2024-01-01T22:53:58.415Z,12.90
2024-01-01T22:56:44.200Z,12.90
2024-01-01T22:59:30.317Z,12.90
2024-01-01T23:02:16.288Z,12.90
2024-01-01T23:05:02.261Z,12.90
2024-01-01T23:07:50.040Z,12.90
2024-01-01T23:10:35.878Z,12.90
2024-01-01T23:13:21.494Z,12.90
2024-01-01T23:16:07.183Z,12.90
2024-01-01T23:18:52.784Z,12.90
2024-01-01T23:21:38.965Z,12.90
2024-01-01T23:24:24.758Z,12.90
2024-01-01T23:27:10.977Z,12.90
2024-01-01T23:29:56.591Z,13.00
2024-01-01T23:32:42.171Z,12.90
2024-01-01T23:35:27.975Z,13.00
2024-01-01T23:38:14.094Z,12.90
2024-01-01T23:41:00.283Z,12.90
2024-01-01T23:43:46.274Z,12.90
2024-01-01T23:46:33.086Z,12.90
2024-01-01T23:49:18.925Z,12.80
2024-01-01T23:52:05.526Z,12.80
2024-01-01T23:54:50.979Z,12.80
2024-01-01T23:57:36.388Z,12.80
